Time;durP1;ratioP1;P1;durP2;ratioP2;P2;SDS_P1;SDS_P2;PMS_P1;PMS_P2;Temp;Humidity;BMP_temperature;BMP_pressure;BME280_temperature;BME280_humidity;BME280_pressure;Samples;Min_cycle;Max_cycle;Signal;HPM_P1;HPM_P2
2022/12/25 00:01:17;;;;;;;2.73;2.33;;;;;;;7.59;nan;96528.81;5006778;28;20337;-82
2022/12/25 00:03:44;;;;;;;2.43;1.97;;;;;;;7.59;nan;96524.28;5014106;28;20259;-82
2022/12/25 00:06:11;;;;;;;3.03;1.93;;;;;;;7.58;nan;96530.69;5002510;28;20199;-81
2022/12/25 00:08:39;;;;;;;2.10;1.90;;;;;;;7.54;nan;96524.09;5005407;28;20210;-81
2022/12/25 00:11:09;;;;;;;3.60;2.00;;;;;;;7.59;nan;96518.91;4996002;28;20223;-81
2022/12/25 00:13:36;;;;;;;1.93;1.60;;;;;;;7.61;nan;96524.06;5016683;28;20204;-81
2022/12/25 00:16:06;;;;;;;2.27;1.50;;;;;;;7.57;nan;96515.59;5005127;28;20204;-81
2022/12/25 00:18:35;;;;;;;1.73;1.60;;;;;;;7.57;nan;96507.53;5024706;28;20293;-81
2022/12/25 00:21:04;;;;;;;2.83;1.40;;;;;;;7.62;nan;96522.22;5009809;28;20222;-81
2022/12/25 00:23:32;;;;;;;3.07;1.40;;;;;;;7.57;nan;96522.84;5010147;28;20203;-81
2022/12/25 00:25:59;;;;;;;2.17;1.60;;;;;;;7.48;nan;96503.44;5003297;28;20238;-81
2022/12/25 00:28:26;;;;;;;2.17;1.60;;;;;;;7.57;nan;96504.03;5009373;28;21313;-81
2022/12/25 00:30:53;;;;;;;2.60;1.60;;;;;;;7.47;nan;96495.56;4997513;28;20196;-81
2022/12/25 00:33:20;;;;;;;1.83;1.67;;;;;;;7.56;nan;96500.53;5005811;28;20199;-81
2022/12/25 00:35:58;;;;;;;1.70;1.40;;;;;;;7.58;nan;96494.91;5008687;28;20202;-81
2022/12/25 00:38:26;;;;;;;2.23;1.47;;;;;;;7.55;nan;96490.81;5010603;28;20207;-81
2022/12/25 00:40:54;;;;;;;2.13;1.60;;;;;;;7.57;nan;96487.91;5013441;28;20229;-81
2022/12/25 00:43:21;;;;;;;2.53;1.50;;;;;;;7.53;nan;96478.59;5003040;28;20293;-81
2022/12/25 00:45:56;;;;;;;1.77;1.30;;;;;;;7.53;nan;96482.13;5011460;28;20213;-81
2022/12/25 00:48:23;;;;;;;1.50;1.40;;;;;;;7.53;nan;96484.81;5012436;28;20297;-81
2022/12/25 00:50:54;;;;;;;1.50;1.40;;;;;;;7.53;nan;96479.44;5013135;28;20214;-81
2022/12/25 00:53:22;;;;;;;1.53;1.23;;;;;;;7.60;nan;96488.31;5044848;28;20225;-81
2022/12/25 00:55:53;;;;;;;1.30;1.20;;;;;;;7.63;nan;96487.06;5044552;28;20203;-81
2022/12/25 00:58:20;;;;;;;1.00;0.90;;;;;;;7.62;nan;96476.53;5012265;28;20210;-81
2022/12/25 01:00:48;;;;;;;1.40;1.10;;;;;;;7.63;nan;96486.25;5026470;28;20223;-81
2022/12/25 01:03:16;;;;;;;2.40;1.17;;;;;;;7.64;nan;96482.53;5009361;28;20250;-81
2022/12/25 01:05:43;;;;;;;1.30;1.20;;;;;;;7.63;nan;96489.75;5010372;28;20211;-81
2022/12/25 01:08:11;;;;;;;1.20;1.00;;;;;;;7.64;nan;96483.34;5030292;28;20190;-81
2022/12/25 01:10:38;;;;;;;2.13;1.10;;;;;;;7.58;nan;96468.88;5011081;28;20231;-81
2022/12/25 01:13:05;;;;;;;3.63;1.17;;;;;;;7.57;nan;96461.84;5026267;28;20211;-81
2022/12/25 01:15:32;;;;;;;0.90;0.90;;;;;;;7.56;nan;96464.75;5028258;28;20234;-81
2022/12/25 01:17:59;;;;;;;1.00;0.90;;;;;;;7.55;nan;96463.94;5006544;28;20214;-81
2022/12/25 01:20:26;;;;;;;1.13;0.90;;;;;;;7.56;nan;96473.66;5007745;28;20222;-81
2022/12/25 01:22:53;;;;;;;1.50;0.97;;;;;;;7.56;nan;96473.66;5027504;28;20201;-81
2022/12/25 01:25:21;;;;;;;2.33;0.90;;;;;;;7.60;nan;96466.81;5013900;28;20242;-81
2022/12/25 01:27:49;;;;;;;2.43;1.23;;;;;;;7.62;nan;96455.88;5012184;28;20213;-81
2022/12/25 01:30:16;;;;;;;2.60;0.70;;;;;;;7.60;nan;96447.16;5011204;28;20352;-81
2022/12/25 01:32:43;;;;;;;0.70;0.70;;;;;;;7.55;nan;96450.50;5006223;28;20207;-81
2022/12/25 01:35:10;;;;;;;0.87;0.80;;;;;;;7.57;nan;96461.84;5007591;28;20273;-81
2022/12/25 01:37:38;;;;;;;1.27;0.80;;;;;;;7.48;nan;96441.63;5021229;28;20215;-81
2022/12/25 01:40:08;;;;;;;1.97;0.80;;;;;;;7.60;nan;96452.53;5014156;28;20226;-81
2022/12/25 01:42:36;;;;;;;1.37;0.80;;;;;;;7.53;nan;96468.69;5013857;28;20218;-81
2022/12/25 01:45:31;;;;;;;0.80;0.80;;;;;;;7.50;nan;96460.19;5009743;28;20214;-81
2022/12/25 01:48:00;;;;;;;1.57;0.67;;;;;;;7.48;nan;96465.81;5002765;28;20257;-81
2022/12/25 01:50:28;;;;;;;0.60;0.60;;;;;;;7.42;nan;96458.56;5028973;28;20218;-81
2022/12/25 01:52:56;;;;;;;2.00;1.10;;;;;;;7.42;nan;96463.09;5011576;28;20214;-81
2022/12/25 01:55:24;;;;;;;1.00;0.90;;;;;;;7.45;nan;96463.53;5026173;28;20214;-82
2022/12/25 01:57:51;;;;;;;0.70;0.70;;;;;;;7.38;nan;96468.09;5019429;28;20207;-82
2022/12/25 02:00:18;;;;;;;0.97;0.80;;;;;;;7.33;nan;96464.34;5002542;28;20223;-81
2022/12/25 02:02:48;;;;;;;0.97;0.70;;;;;;;7.28;nan;96464.97;5002861;28;20267;-81
2022/12/25 02:05:21;;;;;;;2.20;0.70;;;;;;;7.22;nan;96463.13;5011060;28;20214;-82
2022/12/25 02:07:50;;;;;;;1.80;0.60;;;;;;;7.05;nan;96446.59;5011992;28;20275;-81
2022/12/25 02:10:17;;;;;;;1.07;0.97;;;;;;;7.08;nan;96456.06;5012941;28;20227;-81
2022/12/25 02:12:45;;;;;;;0.70;0.70;;;;;;;7.04;nan;96460.22;5013424;28;20206;-81
2022/12/25 02:15:15;;;;;;;0.97;0.80;;;;;;;7.00;nan;96467.03;5008854;28;20199;-81
2022/12/25 02:17:52;;;;;;;0.60;0.60;;;;;;;6.87;nan;96453.59;5008099;28;20203;-81
2022/12/25 02:20:43;;;;;;;4.00;0.90;;;;;;;6.88;nan;96460.63;5038839;28;20261;-81
2022/12/25 02:23:33;;;;;;;0.63;0.63;;;;;;;6.84;nan;96463.69;5016746;28;20211;-81
2022/12/25 02:26:15;;;;;;;0.70;0.70;;;;;;;6.74;nan;96463.25;5001192;28;20235;-81
2022/12/25 02:28:49;;;;;;;0.60;0.60;;;;;;;6.69;nan;96457.69;5001250;28;20199;-81
2022/12/25 02:31:22;;;;;;;0.80;0.80;;;;;;;6.59;nan;96457.25;5044947;28;20213;-81
2022/12/25 02:34:04;;;;;;;0.60;0.60;;;;;;;6.59;nan;96465.31;5011942;28;20214;-82
2022/12/25 02:36:38;;;;;;;0.60;0.60;;;;;;;6.54;nan;96459.72;5002976;28;20199;-81
2022/12/25 02:42:02;;;;;;;0.97;0.70;;;;;;;6.55;nan;96466.72;5007153;28;20249;-81
2022/12/25 03:07:02;;;;;;;1.00;0.90;;;;;;;6.06;nan;96469.63;5012262;28;20203;-81
2022/12/25 03:12:29;;;;;;;1.07;0.97;;;;;;;6.04;nan;96471.69;5018113;28;20222;-81
2022/12/25 03:17:44;;;;;;;1.07;0.90;;;;;;;6.04;nan;96467.16;4977601;28;20214;-81
2022/12/25 03:28:26;;;;;;;0.70;0.70;;;;;;;6.02;nan;96450.47;5027259;28;20241;-81
2022/12/25 03:31:12;;;;;;;1.30;0.80;;;;;;;6.03;nan;96452.13;5024832;28;20207;-81
2022/12/25 03:37:20;;;;;;;0.80;0.80;;;;;;;6.14;nan;96439.97;5009110;28;20234;-81
2022/12/25 04:38:07;;;;;;;0.70;0.70;;;;;;;6.88;nan;96404.25;4988001;28;20238;-81
2022/12/25 04:40:35;;;;;;;0.60;0.60;;;;;;;6.96;nan;96399.50;4997115;28;20258;-81
2022/12/25 04:43:03;;;;;;;1.80;0.77;;;;;;;6.92;nan;96402.78;5010469;28;20246;-81
2022/12/25 04:45:30;;;;;;;1.97;0.83;;;;;;;6.90;nan;96399.47;4992449;28;20208;-81
2022/12/25 04:47:59;;;;;;;1.37;0.60;;;;;;;6.93;nan;96407.13;5024272;28;20207;-81
2022/12/25 04:50:26;;;;;;;0.70;0.70;;;;;;;6.88;nan;96385.47;4991074;28;20238;-81
2022/12/25 04:52:53;;;;;;;0.50;0.50;;;;;;;6.90;nan;96384.22;4993331;28;20220;-81
2022/12/25 04:55:20;;;;;;;0.57;0.57;;;;;;;6.89;nan;96387.13;4995070;28;20195;-81
2022/12/25 04:57:47;;;;;;;0.87;0.50;;;;;;;6.98;nan;96391.22;5018439;28;20208;-81
2022/12/25 05:00:16;;;;;;;0.50;0.50;;;;;;;6.99;nan;96399.06;5006461;28;20218;-81
2022/12/25 05:02:43;;;;;;;0.70;0.70;;;;;;;7.06;nan;96399.09;4994467;28;20196;-81
2022/12/25 05:05:10;;;;;;;0.50;0.50;;;;;;;7.12;nan;96392.88;4991936;28;20200;-82
2022/12/25 05:07:37;;;;;;;0.97;0.60;;;;;;;7.04;nan;96380.50;4995748;28;20211;-81
2022/12/25 05:10:05;;;;;;;1.33;0.80;;;;;;;7.13;nan;96386.50;4993032;28;20230;-81
2022/12/25 05:12:32;;;;;;;1.13;0.70;;;;;;;7.07;nan;96385.44;4991113;28;20207;-81
2022/12/25 05:14:59;;;;;;;0.60;0.60;;;;;;;7.24;nan;96383.16;5012273;28;20210;-81
2022/12/25 05:17:27;;;;;;;0.60;0.60;;;;;;;7.23;nan;96384.19;5025926;28;20208;-81
2022/12/25 05:19:54;;;;;;;1.13;0.60;;;;;;;7.20;nan;96385.44;4984630;28;20220;-81
2022/12/25 05:22:21;;;;;;;0.80;0.80;;;;;;;7.17;nan;96385.03;4993173;28;20292;-81
2022/12/25 05:24:48;;;;;;;0.60;0.60;;;;;;;7.17;nan;96380.47;5006492;28;20204;-81
2022/12/25 05:27:16;;;;;;;0.70;0.50;;;;;;;7.07;nan;96377.38;4997121;28;20206;-81
2022/12/25 05:29:43;;;;;;;0.67;0.60;;;;;;;7.21;nan;96378.22;5010015;28;20210;-81
2022/12/25 05:32:10;;;;;;;0.60;0.60;;;;;;;7.30;nan;96376.16;5012394;28;20214;-81
2022/12/25 05:34:38;;;;;;;0.60;0.60;;;;;;;7.31;nan;96386.69;5005984;28;20205;-81
2022/12/25 05:37:08;;;;;;;0.70;0.70;;;;;;;7.26;nan;96388.31;5010147;28;20231;-81
2022/12/25 05:39:35;;;;;;;1.50;0.60;;;;;;;7.19;nan;96397.22;5007132;28;20207;-81
2022/12/25 05:42:02;;;;;;;1.80;0.70;;;;;;;7.07;nan;96392.66;5017114;28;20219;-81
2022/12/25 05:44:29;;;;;;;0.77;0.77;;;;;;;6.88;nan;96377.41;5003378;28;20249;-81
2022/12/25 05:46:56;;;;;;;0.87;0.70;;;;;;;6.89;nan;96389.81;4997052;28;20195;-81
2022/12/25 05:49:23;;;;;;;1.10;0.60;;;;;;;6.79;nan;96374.09;5042319;28;20242;-81
2022/12/25 05:51:52;;;;;;;0.70;0.70;;;;;;;6.81;nan;96375.53;5013082;28;20191;-81
2022/12/25 05:54:19;;;;;;;0.83;0.83;;;;;;;6.67;nan;96373.88;5012948;28;20206;-81
2022/12/25 05:56:46;;;;;;;1.70;0.77;;;;;;;6.54;nan;96360.47;5012777;28;20217;-81
2022/12/25 05:59:13;;;;;;;0.70;0.70;;;;;;;6.57;nan;96378.00;5013127;28;20286;-81
2022/12/25 06:01:40;;;;;;;0.60;0.60;;;;;;;6.45;nan;96369.75;5011341;28;20234;-81
2022/12/25 06:04:07;;;;;;;0.60;0.60;;;;;;;6.51;nan;96385.00;5019430;28;20208;-81
2022/12/25 06:06:34;;;;;;;0.70;0.60;;;;;;;6.45;nan;96365.19;5012663;28;20206;-81
2022/12/25 06:09:03;;;;;;;0.70;0.60;;;;;;;6.43;nan;96369.09;5004389;28;20207;-81
2022/12/25 06:11:30;;;;;;;0.87;0.70;;;;;;;6.45;nan;96375.94;5011291;28;20226;-81
2022/12/25 06:13:57;;;;;;;2.00;1.10;;;;;;;6.42;nan;96378.19;5014197;28;20230;-81
2022/12/25 06:16:24;;;;;;;0.93;0.80;;;;;;;6.52;nan;96383.97;5025679;28;20206;-81
2022/12/25 06:18:52;;;;;;;0.80;0.80;;;;;;;6.47;nan;96373.03;5024260;28;20495;-81
2022/12/25 06:21:19;;;;;;;1.70;0.70;;;;;;;6.46;nan;96366.03;5010834;28;20242;-81
2022/12/25 06:23:46;;;;;;;0.77;0.77;;;;;;;6.58;nan;96367.06;5038814;28;20210;-81
2022/12/25 06:26:17;;;;;;;0.77;0.77;;;;;;;6.60;nan;96351.59;5026139;28;20229;-81
2022/12/25 06:28:45;;;;;;;4.67;2.00;;;;;;;6.72;nan;96359.88;5006321;28;20218;-81
2022/12/25 06:31:16;;;;;;;1.20;1.10;;;;;;;6.74;nan;96363.97;5024922;28;20203;-81
2022/12/25 06:33:44;;;;;;;1.10;1.00;;;;;;;6.80;nan;96363.16;5002413;28;20225;-81
2022/12/25 06:36:14;;;;;;;2.27;1.07;;;;;;;6.73;nan;96362.31;5012082;28;20208;-81
2022/12/25 06:38:41;;;;;;;1.10;1.00;;;;;;;6.63;nan;96345.81;5008100;28;20211;-81
2022/12/25 06:41:11;;;;;;;2.00;0.90;;;;;;;6.55;nan;96367.47;5006960;28;20235;-81
2022/12/25 06:43:39;;;;;;;0.80;0.80;;;;;;;6.60;nan;96351.59;5000785;28;20243;-81
2022/12/25 06:46:09;;;;;;;0.80;0.80;;;;;;;6.68;nan;96353.25;4994015;28;20222;-81
2022/12/25 06:48:37;;;;;;;0.93;0.90;;;;;;;6.79;nan;96356.16;5009766;28;20206;-81
2022/12/25 06:51:08;;;;;;;0.80;0.80;;;;;;;6.84;nan;96353.66;5010984;28;20210;-81
2022/12/25 06:53:35;;;;;;;0.93;0.83;;;;;;;6.90;nan;96341.25;5041231;28;20263;-81
2022/12/25 06:56:06;;;;;;;1.40;0.80;;;;;;;6.92;nan;96344.56;5006720;28;20206;-80
2022/12/25 06:58:33;;;;;;;1.37;0.80;;;;;;;6.96;nan;96321.66;5010882;28;20261;-81
2022/12/25 07:01:13;;;;;;;0.60;0.60;;;;;;;7.01;nan;96329.06;5003989;28;20235;-81
2022/12/25 07:03:42;;;;;;;1.73;0.80;;;;;;;7.07;nan;96325.56;5001381;28;20210;-81
2022/12/25 07:06:10;;;;;;;1.00;0.90;;;;;;;6.99;nan;96331.97;5006863;28;20203;-81
2022/12/25 07:08:37;;;;;;;0.93;0.90;;;;;;;6.93;nan;96323.94;5004199;28;20292;-81
2022/12/25 07:11:04;;;;;;;0.80;0.80;;;;;;;6.91;nan;96320.63;5010806;28;20222;-81
2022/12/25 07:13:31;;;;;;;1.17;0.90;;;;;;;6.81;nan;96286.16;5001706;28;20218;-81
2022/12/25 07:15:59;;;;;;;1.90;0.70;;;;;;;6.96;nan;96307.41;5020215;28;20291;-81
2022/12/25 07:18:28;;;;;;;0.80;0.80;;;;;;;6.97;nan;96309.06;5008627;28;20215;-81
2022/12/25 07:20:58;;;;;;;0.90;0.90;;;;;;;7.08;nan;96293.13;5008886;28;20199;-81
2022/12/25 07:23:26;;;;;;;0.70;0.70;;;;;;;7.16;nan;96271.41;5011815;28;20202;-81
2022/12/25 07:25:56;;;;;;;0.80;0.80;;;;;;;7.14;nan;96275.38;5014774;28;20231;-81
2022/12/25 07:28:23;;;;;;;0.77;0.77;;;;;;;7.15;nan;96282.38;5008814;28;20199;-81
2022/12/25 07:30:51;;;;;;;1.37;0.80;;;;;;;7.23;nan;96285.66;5008566;28;20209;-81
2022/12/25 07:33:18;;;;;;;0.80;0.80;;;;;;;7.28;nan;96276.16;5009934;28;20195;-81
2022/12/25 07:35:46;;;;;;;0.70;0.70;;;;;;;7.40;nan;96277.94;5008557;28;20214;-81
2022/12/25 07:38:13;;;;;;;0.70;0.70;;;;;;;7.47;nan;96286.84;5012162;28;20213;-81
2022/12/25 07:40:40;;;;;;;1.33;0.90;;;;;;;7.35;nan;96276.94;5018275;28;20210;-81
2022/12/25 07:43:07;;;;;;;0.70;0.70;;;;;;;7.33;nan;96277.16;5007588;28;20249;-81
2022/12/25 07:45:34;;;;;;;1.23;0.70;;;;;;;7.33;nan;96284.38;5009250;28;20202;-81
2022/12/25 07:48:01;;;;;;;1.10;1.00;;;;;;;7.11;nan;96270.41;5013997;28;20297;-81
2022/12/25 07:50:28;;;;;;;2.30;0.80;;;;;;;7.07;nan;96279.91;5012355;28;20190;-81
2022/12/25 07:52:58;;;;;;;1.00;0.90;;;;;;;6.95;nan;96277.06;5036255;28;20201;-81
2022/12/25 07:55:25;;;;;;;1.77;1.27;;;;;;;6.79;nan;96262.22;5014453;28;20297;-81
2022/12/25 07:57:52;;;;;;;1.30;1.20;;;;;;;6.83;nan;96271.50;5023113;28;20238;-81
2022/12/25 08:00:20;;;;;;;3.23;1.80;;;;;;;6.73;nan;96263.03;5016211;28;20199;-81
2022/12/25 08:02:49;;;;;;;2.23;1.90;;;;;;;6.79;nan;96264.91;5008415;28;20281;-81
2022/12/25 08:05:16;;;;;;;4.27;2.53;;;;;;;6.81;nan;96270.88;5018981;28;20194;-81
2022/12/25 08:07:43;;;;;;;15.80;9.67;;;;;;;6.82;nan;96258.28;5017927;28;20210;-81
2022/12/25 08:10:12;;;;;;;13.93;7.47;;;;;;;6.94;nan;96251.25;5035392;28;20234;-81
2022/12/25 08:12:39;;;;;;;8.97;5.60;;;;;;;6.95;nan;96260.13;5012378;28;20269;-81
2022/12/25 08:15:07;;;;;;;2.83;2.53;;;;;;;6.95;nan;96270.88;5012116;28;20214;-81
2022/12/25 08:17:34;;;;;;;3.00;2.70;;;;;;;6.89;nan;96263.66;5015877;28;20202;-81
2022/12/25 08:20:01;;;;;;;3.20;2.60;;;;;;;6.76;nan;96259.94;5007467;28;20214;-81
2022/12/25 08:22:28;;;;;;;5.13;4.60;;;;;;;6.73;nan;96264.88;5014642;28;20215;-81
2022/12/25 08:24:56;;;;;;;6.13;3.57;;;;;;;6.87;nan;96266.53;5010105;28;20202;-81
2022/12/25 08:27:26;;;;;;;3.13;2.80;;;;;;;6.86;nan;96258.69;5044543;28;20214;-81
2022/12/25 08:29:53;;;;;;;4.13;3.07;;;;;;;6.75;nan;96263.66;5046095;28;20199;-81
2022/12/25 08:32:20;;;;;;;3.53;3.00;;;;;;;6.71;nan;96269.66;5011845;28;20195;-81
2022/12/25 08:34:48;;;;;;;4.30;3.17;;;;;;;6.62;nan;96262.84;5010862;28;20224;-81
2022/12/25 08:37:16;;;;;;;3.37;2.60;;;;;;;6.68;nan;96284.31;5026693;28;20234;-81
2022/12/25 08:39:43;;;;;;;3.03;2.60;;;;;;;6.56;nan;96269.03;5040053;28;20213;-81
2022/12/25 08:42:10;;;;;;;3.57;2.50;;;;;;;6.53;nan;96286.38;5012278;28;20227;-81
2022/12/25 08:44:38;;;;;;;5.20;2.73;;;;;;;6.39;nan;96290.91;5010350;28;20207;-81
2022/12/25 08:47:05;;;;;;;4.07;2.80;;;;;;;6.28;nan;96288.03;5028002;28;20217;-81
2022/12/25 08:49:33;;;;;;;5.07;3.03;;;;;;;6.29;nan;96305.78;5027945;28;20206;-81
2022/12/25 08:52:00;;;;;;;4.20;2.80;;;;;;;6.22;nan;96283.47;5034654;28;20199;-82
2022/12/25 08:54:27;;;;;;;3.87;2.63;;;;;;;6.28;nan;96304.94;5015612;28;20210;-82
2022/12/25 08:56:54;;;;;;;3.33;2.73;;;;;;;6.24;nan;96302.84;5008653;28;20222;-82
2022/12/25 08:59:21;;;;;;;6.93;5.03;;;;;;;6.33;nan;96315.88;5019357;28;20200;-81
2022/12/25 09:01:49;;;;;;;4.87;3.30;;;;;;;6.39;nan;96312.34;5006791;28;20223;-82
2022/12/25 09:04:16;;;;;;;4.73;3.43;;;;;;;6.38;nan;96316.06;5027493;28;20202;-81
2022/12/25 09:06:43;;;;;;;4.77;3.37;;;;;;;6.42;nan;96303.09;5009657;28;20203;-82
2022/12/25 09:09:10;;;;;;;3.57;3.23;;;;;;;6.46;nan;96296.28;5031275;28;20253;-81
2022/12/25 09:11:37;;;;;;;4.20;3.53;;;;;;;6.55;nan;96305.75;5015519;28;20226;-81
2022/12/25 09:14:05;;;;;;;5.00;3.60;;;;;;;6.54;nan;96304.13;5007266;28;20276;-81
2022/12/25 09:16:32;;;;;;;5.27;3.93;;;;;;;6.65;nan;96316.09;5008846;28;20263;-81
2022/12/25 09:19:00;;;;;;;7.07;3.77;;;;;;;6.72;nan;96311.56;5003899;28;20234;-81
2022/12/25 09:21:27;;;;;;;5.37;3.70;;;;;;;6.72;nan;96300.84;5012540;28;20305;-82
2022/12/25 09:23:54;;;;;;;5.13;3.60;;;;;;;6.94;nan;96322.91;5023783;28;20290;-81
2022/12/25 09:26:21;;;;;;;5.40;2.80;;;;;;;7.05;nan;96333.00;5013087;28;20242;-82
2022/12/25 09:28:49;;;;;;;2.83;2.53;;;;;;;7.09;nan;96328.84;5005977;28;20204;-81
2022/12/25 09:31:16;;;;;;;3.83;3.13;;;;;;;7.12;nan;96329.28;5006790;28;20264;-81
2022/12/25 09:33:43;;;;;;;4.83;3.57;;;;;;;7.25;nan;96332.97;5023111;28;20218;-81
2022/12/25 09:36:11;;;;;;;4.57;3.50;;;;;;;7.21;nan;96316.47;5027285;28;20191;-82
2022/12/25 09:38:39;;;;;;;5.20;4.40;;;;;;;7.34;nan;96324.47;5014419;28;20258;-81
2022/12/25 09:41:13;;;;;;;6.60;4.97;;;;;;;7.43;nan;96325.06;5002622;28;20199;-81
2022/12/25 09:43:47;;;;;;;4.47;2.77;;;;;;;7.51;nan;96322.16;5007541;28;20257;-80
2022/12/25 09:46:19;;;;;;;5.83;3.90;;;;;;;7.70;nan;96325.81;5037176;28;20217;-81
2022/12/25 09:48:57;;;;;;;2.97;2.30;;;;;;;7.85;nan;96345.19;5011158;28;20211;-82
2022/12/25 09:51:29;;;;;;;2.73;2.23;;;;;;;7.93;nan;96350.31;5009867;28;20211;-80
2022/12/25 09:54:02;;;;;;;2.80;2.00;;;;;;;8.05;nan;96350.47;5013913;28;20256;-82
2022/12/25 09:56:29;;;;;;;2.53;1.70;;;;;;;8.11;nan;96350.44;5017118;28;20207;-81
2022/12/25 09:58:56;;;;;;;2.83;1.80;;;;;;;8.28;nan;96346.19;5013940;28;20240;-82
2022/12/25 10:01:33;;;;;;;2.00;1.67;;;;;;;8.34;nan;96356.13;5004706;28;20207;-82
2022/12/25 10:04:25;;;;;;;2.30;2.00;;;;;;;8.45;nan;96360.00;5008103;28;20322;-82
2022/12/25 10:07:06;;;;;;;4.00;1.83;;;;;;;8.61;nan;96355.97;4999277;28;20204;-80
2022/12/25 10:09:54;;;;;;;2.33;1.90;;;;;;;8.75;nan;96357.53;5011219;28;20260;-81
2022/12/25 10:12:33;;;;;;;4.93;2.00;;;;;;;8.91;nan;96361.56;5005382;28;20223;-82
2022/12/25 10:15:32;;;;;;;2.20;2.00;;;;;;;9.10;nan;96350.59;5007888;28;20345;-82
2022/12/25 10:18:37;;;;;;;4.67;2.90;;;;;;;9.24;nan;96354.00;4953697;28;20213;-82
2022/12/25 10:21:08;;;;;;;1.97;1.80;;;;;;;9.40;nan;96345.34;4977962;28;20293;-82
2022/12/25 10:23:40;;;;;;;3.10;2.30;;;;;;;9.45;nan;96337.41;5005348;28;20313;-82
2022/12/25 10:26:15;;;;;;;5.00;2.47;;;;;;;9.58;nan;96346.41;5007702;28;20249;-82
2022/12/25 10:28:44;;;;;;;2.53;2.33;;;;;;;9.80;nan;96342.22;5033010;28;20210;-82
2022/12/25 10:31:19;;;;;;;2.60;2.40;;;;;;;9.97;nan;96340.53;5009817;28;20234;-82
2022/12/25 10:33:48;;;;;;;3.43;2.10;;;;;;;10.12;nan;96354.47;5007366;28;20269;-82
2022/12/25 10:36:18;;;;;;;2.77;2.10;;;;;;;10.27;nan;96343.31;5007014;28;20194;-82
2022/12/25 10:38:46;;;;;;;2.00;1.80;;;;;;;10.31;nan;96333.69;5012634;28;20230;-85
2022/12/25 10:41:29;;;;;;;2.53;2.33;;;;;;;10.31;nan;96344.50;5021743;28;20500;-85
2022/12/25 10:43:57;;;;;;;3.73;2.20;;;;;;;10.56;nan;96331.66;4997981;28;20219;-85
2022/12/25 10:46:28;;;;;;;2.97;2.10;;;;;;;10.86;nan;96322.72;5024163;28;20213;-85
2022/12/25 10:48:57;;;;;;;2.57;2.00;;;;;;;11.23;nan;96332.25;4999080;28;20261;-85
2022/12/25 10:51:30;;;;;;;2.13;1.93;;;;;;;11.55;nan;96321.09;5016946;28;20214;-82
2022/12/25 10:53:59;;;;;;;2.87;2.37;;;;;;;11.91;nan;96323.50;5012588;28;20306;-82
2022/12/25 10:56:26;;;;;;;3.73;2.40;;;;;;;11.95;nan;96318.44;5007104;28;20214;-82
2022/12/25 10:59:04;;;;;;;2.33;2.10;;;;;;;11.92;nan;96308.91;5010964;28;20229;-82
2022/12/25 11:01:32;;;;;;;3.73;2.30;;;;;;;12.21;nan;96315.19;4996289;28;20215;-82
2022/12/25 11:03:59;;;;;;;2.40;2.00;;;;;;;12.54;nan;96303.63;5010136;28;20218;-82
2022/12/25 11:06:29;;;;;;;2.40;2.17;;;;;;;12.84;nan;96314.19;5000604;28;20348;-82
2022/12/25 11:09:00;;;;;;;2.70;2.37;;;;;;;13.02;nan;96308.50;5008999;28;20204;-83
2022/12/25 11:11:28;;;;;;;2.80;2.47;;;;;;;13.14;nan;96295.72;5004294;28;20227;-81
2022/12/25 11:13:59;;;;;;;3.13;2.53;;;;;;;13.21;nan;96299.06;5004243;28;20206;-82
2022/12/25 11:16:30;;;;;;;2.93;2.30;;;;;;;13.27;nan;96295.38;5011667;28;20231;-82
2022/12/25 11:18:59;;;;;;;3.20;2.70;;;;;;;13.12;nan;96283.44;5021550;28;20204;-82
2022/12/25 11:21:28;;;;;;;2.43;2.23;;;;;;;13.18;nan;96280.59;5006746;28;20777;-82
2022/12/25 11:24:01;;;;;;;3.43;2.33;;;;;;;13.42;nan;96294.78;5008744;28;20219;-82
2022/12/25 11:26:31;;;;;;;2.87;2.53;;;;;;;13.49;nan;96260.16;5034136;28;20329;-82
2022/12/25 11:28:59;;;;;;;2.90;2.60;;;;;;;13.70;nan;96263.94;5009551;28;20651;-82
2022/12/25 11:31:36;;;;;;;3.33;3.00;;;;;;;13.75;nan;96279.50;5015141;28;20210;-82
2022/12/25 11:34:07;;;;;;;2.93;2.23;;;;;;;13.64;nan;96263.06;5008449;28;20211;-81
2022/12/25 11:36:44;;;;;;;2.80;2.47;;;;;;;13.82;nan;96256.53;5034832;28;20207;-82
2022/12/25 11:39:21;;;;;;;2.50;2.30;;;;;;;13.99;nan;96272.75;5009019;28;20222;-82
2022/12/25 11:41:53;;;;;;;3.20;2.67;;;;;;;14.09;nan;96269.31;5011920;28;20206;-82
2022/12/25 11:44:31;;;;;;;2.67;2.47;;;;;;;13.94;nan;96259.13;5008487;28;20222;-82
2022/12/25 11:47:11;;;;;;;3.47;2.27;;;;;;;13.84;nan;96261.69;5012863;28;20206;-82
2022/12/25 11:49:45;;;;;;;2.87;2.30;;;;;;;14.04;nan;96264.63;5010999;28;20199;-82
2022/12/25 11:52:13;;;;;;;2.60;2.40;;;;;;;14.15;nan;96260.16;5010349;28;20241;-83
2022/12/25 11:54:50;;;;;;;3.00;2.40;;;;;;;14.26;nan;96268.16;5010367;28;20210;-82
2022/12/25 11:57:18;;;;;;;3.37;3.07;;;;;;;14.53;nan;96259.25;5007181;28;20278;-82
2022/12/25 11:59:52;;;;;;;3.20;2.40;;;;;;;14.54;nan;96261.69;5008524;28;20194;-82
2022/12/25 12:02:28;;;;;;;3.80;2.50;;;;;;;14.42;nan;96249.34;5005891;28;20261;-82
2022/12/25 12:05:09;;;;;;;3.00;2.70;;;;;;;14.27;nan;96237.22;5012692;28;20301;-82
2022/12/25 12:07:37;;;;;;;4.47;3.73;;;;;;;14.44;nan;96249.91;4999417;28;20207;-82
2022/12/25 12:10:14;;;;;;;3.30;3.00;;;;;;;14.43;nan;96245.53;5022973;28;20222;-81
2022/12/25 12:12:50;;;;;;;3.07;2.60;;;;;;;13.87;nan;96234.84;5003819;28;20206;-81
2022/12/25 12:15:27;;;;;;;3.00;2.70;;;;;;;13.07;nan;96238.13;5021789;28;20202;-82
2022/12/25 12:17:54;;;;;;;3.30;2.80;;;;;;;12.37;nan;96237.78;4997677;28;20229;-82
2022/12/25 12:20:30;;;;;;;5.00;2.90;;;;;;;11.87;nan;96235.78;5028641;28;20202;-81
2022/12/25 12:22:58;;;;;;;3.13;2.83;;;;;;;11.48;nan;96220.34;5004723;28;20221;-81
2022/12/25 12:25:29;;;;;;;5.63;3.43;;;;;;;11.14;nan;96219.34;5004890;28;20261;-81
2022/12/25 12:27:59;;;;;;;3.20;2.90;;;;;;;10.82;nan;96226.97;5000345;28;20203;-82
2022/12/25 12:30:30;;;;;;;4.20;3.60;;;;;;;10.69;nan;96235.31;5025224;28;20198;-82
2022/12/25 12:33:00;;;;;;;3.93;3.50;;;;;;;10.52;nan;96217.09;5005532;28;20210;-82
2022/12/25 12:35:30;;;;;;;4.00;3.50;;;;;;;10.46;nan;96231.50;5013935;28;20202;-82
2022/12/25 12:38:00;;;;;;;4.30;3.63;;;;;;;10.29;nan;96210.84;5012287;28;20230;-81
2022/12/25 12:40:33;;;;;;;5.27;3.97;;;;;;;10.16;nan;96198.34;5008684;28;20247;-82
2022/12/25 12:43:01;;;;;;;4.10;3.57;;;;;;;9.88;nan;96180.91;5029756;28;20227;-82
2022/12/25 12:45:32;;;;;;;4.07;3.67;;;;;;;9.92;nan;96212.81;5010985;28;20208;-82
2022/12/25 12:47:59;;;;;;;4.30;3.77;;;;;;;9.91;nan;96217.41;5012331;28;20304;-82
2022/12/25 12:50:34;;;;;;;4.40;3.83;;;;;;;9.84;nan;96206.72;5003191;28;20210;-82
2022/12/25 12:53:17;;;;;;;4.83;4.30;;;;;;;9.71;nan;96190.69;5005334;28;20203;-82
2022/12/25 12:55:45;;;;;;;4.87;4.10;;;;;;;9.68;nan;96187.66;5012110;28;20298;-82
2022/12/25 12:58:27;;;;;;;4.67;4.00;;;;;;;9.60;nan;96188.78;5028298;28;20281;-81
2022/12/25 13:00:58;;;;;;;6.50;4.83;;;;;;;9.55;nan;96187.81;5027581;28;20238;-82
2022/12/25 13:03:39;;;;;;;5.93;4.07;;;;;;;9.53;nan;96188.03;5016644;28;20218;-82
2022/12/25 13:06:14;;;;;;;5.17;3.93;;;;;;;9.51;nan;96189.34;5007572;28;20227;-82
2022/12/25 13:08:58;;;;;;;6.27;3.93;;;;;;;9.46;nan;96195.38;5000430;28;20297;-82
2022/12/25 13:11:29;;;;;;;5.83;4.10;;;;;;;9.52;nan;96220.63;5038261;28;20289;-82
2022/12/25 13:14:00;;;;;;;4.73;3.97;;;;;;;9.49;nan;96221.91;5010242;28;20206;-82
2022/12/25 13:16:33;;;;;;;5.47;4.30;;;;;;;9.38;nan;96234.25;5008920;28;20203;-82
2022/12/25 13:19:05;;;;;;;4.90;4.40;;;;;;;9.21;nan;96240.47;5009026;28;20223;-81
2022/12/25 13:21:33;;;;;;;5.07;4.33;;;;;;;9.06;nan;96235.44;5013503;28;20203;-82
2022/12/25 13:24:02;;;;;;;5.87;4.77;;;;;;;8.90;nan;96250.31;5014326;28;20223;-81
2022/12/25 13:26:31;;;;;;;5.47;4.53;;;;;;;8.72;nan;96247.59;5005779;28;20238;-82
2022/12/25 13:28:58;;;;;;;7.93;4.70;;;;;;;8.79;nan;96272.56;5013453;28;20199;-82
2022/12/25 13:31:27;;;;;;;6.87;5.37;;;;;;;8.72;nan;96264.56;5012276;28;20211;-82
2022/12/25 13:33:58;;;;;;;6.40;5.13;;;;;;;8.67;nan;96271.66;5011843;28;20191;-83
2022/12/25 13:36:26;;;;;;;8.10;5.03;;;;;;;8.57;nan;96279.41;5025149;28;20207;-82
2022/12/25 13:38:56;;;;;;;8.83;5.57;;;;;;;8.51;nan;96281.09;5022838;28;20199;-82
2022/12/25 13:44:19;;;;;;;6.63;5.40;;;;;;;8.47;nan;96289.81;5011218;28;20229;-82
2022/12/25 13:46:46;;;;;;;7.67;5.77;;;;;;;8.46;nan;96288.19;5010913;28;20214;-82
2022/12/25 13:49:16;;;;;;;7.97;5.73;;;;;;;8.48;nan;96302.25;5010275;28;20237;-83
2022/12/25 13:51:43;;;;;;;8.17;6.23;;;;;;;8.44;nan;96303.72;5012407;28;20284;-82
2022/12/25 13:54:12;;;;;;;7.17;5.60;;;;;;;8.46;nan;96307.00;4999113;28;20208;-82
2022/12/25 13:56:48;;;;;;;8.03;5.77;;;;;;;8.40;nan;96308.72;5003081;28;20257;-82